Time;durP1;ratioP1;P1;durP2;ratioP2;P2;SDS_P1;SDS_P2;PMS_P1;PMS_P2;Temp;Humidity;BMP_temperature;BMP_pressure;BME280_temperature;BME280_humidity;BME280_pressure;Samples;Min_cycle;Max_cycle;Signal;HPM_P1;HPM_P2
2022/06/03 03:00:42;;;;;;;8.30;7.80;;;12.90;99.90;;;;;;5885959;23;20701;-78
2022/06/03 03:03:43;;;;;;;7.93;7.37;;;12.90;99.90;;;;;;5020913;28;20210;-79
2022/06/03 03:06:26;;;;;;;8.13;7.60;;;12.80;99.90;;;;;;5018053;28;20242;-78
2022/06/03 03:09:11;;;;;;;10.23;9.73;;;12.80;99.90;;;;;;5016049;28;20193;-78
2022/06/03 03:11:49;;;;;;;9.43;8.60;;;12.80;99.90;;;;;;5015121;28;20286;-78
2022/06/03 03:14:43;;;;;;;10.83;9.93;;;12.80;99.90;;;;;;5014926;28;20226;-78
2022/06/03 03:17:30;;;;;;;19.77;18.50;;;12.80;99.90;;;;;;5012291;28;20184;-79
2022/06/03 03:20:20;;;;;;;11.27;10.50;;;12.90;99.90;;;;;;5012578;28;20198;-79
2022/06/03 03:23:07;;;;;;;14.20;13.23;;;13.10;99.90;;;;;;5012756;28;20199;-79
2022/06/03 03:25:52;;;;;;;8.97;8.27;;;13.10;99.90;;;;;;5011505;28;20183;-78
2022/06/03 03:28:48;;;;;;;7.90;7.37;;;13.20;99.90;;;;;;5011137;28;20553;-78
2022/06/03 03:31:50;;;;;;;9.30;8.33;;;13.20;99.90;;;;;;5012031;28;20203;-77
2022/06/03 03:34:46;;;;;;;10.20;9.60;;;13.30;99.90;;;;;;5016351;28;20241;-79
2022/06/03 03:37:50;;;;;;;12.07;11.27;;;13.30;99.90;;;;;;5008222;28;20224;-79
2022/06/03 03:40:31;;;;;;;12.10;11.13;;;13.30;99.90;;;;;;5011735;28;20270;-78
2022/06/03 03:43:35;;;;;;;12.93;11.80;;;13.30;99.90;;;;;;5012900;28;20197;-77
2022/06/03 03:46:04;;;;;;;14.13;13.33;;;13.30;99.90;;;;;;4955006;28;20217;-77
2022/06/03 03:48:35;;;;;;;25.17;23.33;;;13.30;99.90;;;;;;5005209;28;20671;-79
2022/06/03 03:51:10;;;;;;;24.17;22.53;;;13.20;99.90;;;;;;5017032;28;20213;-79
2022/06/03 03:53:42;;;;;;;16.47;15.47;;;13.20;99.90;;;;;;5008257;28;20278;-80
2022/06/03 03:57:05;;;;;;;17.27;16.27;;;13.20;99.90;;;;;;5011118;28;20180;-79
2022/06/03 03:59:56;;;;;;;15.10;13.77;;;13.20;99.90;;;;;;4971453;28;20223;-79
2022/06/03 04:02:28;;;;;;;16.13;15.10;;;13.20;99.90;;;;;;5016640;28;20219;-78
2022/06/03 04:05:28;;;;;;;14.33;13.43;;;13.20;99.90;;;;;;5021630;28;20306;-77
2022/06/03 04:08:27;;;;;;;16.20;15.37;;;13.20;99.90;;;;;;5013787;28;20226;-79
2022/06/03 04:11:08;;;;;;;18.50;17.37;;;13.20;99.90;;;;;;4994744;28;20295;-78
2022/06/03 04:13:40;;;;;;;18.23;17.33;;;13.20;99.90;;;;;;4996099;28;20656;-79
2022/06/03 04:16:36;;;;;;;22.73;21.53;;;13.30;99.90;;;;;;4995403;28;20218;-79
2022/06/03 04:19:20;;;;;;;24.13;22.73;;;13.30;99.90;;;;;;4999233;28;20652;-78
2022/06/03 04:22:07;;;;;;;16.67;15.73;;;13.20;99.90;;;;;;5007915;28;20288;-80
2022/06/03 04:24:54;;;;;;;19.93;18.63;;;13.30;99.90;;;;;;5026300;28;20709;-79
2022/06/03 04:27:29;;;;;;;17.80;16.73;;;13.30;99.90;;;;;;5028486;28;20179;-79
2022/06/03 04:30:16;;;;;;;18.33;17.07;;;13.30;99.90;;;;;;5029857;28;20234;-79
2022/06/03 04:33:21;;;;;;;18.00;16.90;;;13.30;99.90;;;;;;5025617;28;20195;-80
2022/06/03 04:36:19;;;;;;;17.60;16.33;;;13.40;99.90;;;;;;5016200;28;20222;-80
2022/06/03 04:39:17;;;;;;;24.23;22.87;;;13.40;99.90;;;;;;5011954;28;20620;-80
2022/06/03 04:42:14;;;;;;;26.63;25.23;;;13.40;99.90;;;;;;4971659;28;20236;-80
2022/06/03 04:45:04;;;;;;;20.77;19.03;;;13.40;99.90;;;;;;5007596;28;20196;-79
2022/06/03 04:47:48;;;;;;;21.63;20.03;;;13.40;99.90;;;;;;5009438;28;20470;-80
2022/06/03 04:50:33;;;;;;;29.70;28.20;;;13.60;99.90;;;;;;4996671;28;20671;-76
2022/06/03 04:53:28;;;;;;;14.13;12.93;;;13.80;99.90;;;;;;4993451;28;20188;-76
2022/06/03 04:56:35;;;;;;;9.43;8.17;;;14.00;99.90;;;;;;4993413;28;20557;-76
2022/06/03 04:59:31;;;;;;;7.63;7.03;;;14.30;99.90;;;;;;4992470;28;20248;-80
2022/06/03 05:02:12;;;;;;;8.10;7.60;;;14.50;99.90;;;;;;4989760;28;20247;-80
2022/06/03 05:04:44;;;;;;;21.43;20.17;;;14.70;99.90;;;;;;5013577;28;20187;-79
2022/06/03 05:07:15;;;;;;;10.77;10.03;;;15.20;99.90;;;;;;5013958;28;20180;-78
2022/06/03 05:09:53;;;;;;;7.33;6.90;;;15.70;99.90;;;;;;5015219;28;20190;-78
2022/06/03 05:12:34;;;;;;;9.67;8.97;;;16.20;99.90;;;;;;5015610;28;20207;-79
2022/06/03 05:15:10;;;;;;;9.93;9.13;;;16.90;99.90;;;;;;5014435;28;20550;-81
2022/06/03 05:18:08;;;;;;;19.17;17.87;;;17.60;99.90;;;;;;5016045;28;20194;-78
2022/06/03 05:20:43;;;;;;;82.03;77.30;;;18.20;99.90;;;;;;5016916;28;20242;-79
2022/06/03 05:23:41;;;;;;;27.23;25.33;;;18.80;99.90;;;;;;5018158;28;20183;-79
2022/06/03 05:26:13;;;;;;;10.20;8.95;;;19.40;99.90;;;;;;5018367;28;20183;-79
2022/06/03 05:29:06;;;;;;;13.52;12.43;;;20.00;99.90;;;;;;5019307;28;20636;-79
2022/06/03 05:32:13;;;;;;;22.80;21.42;;;20.40;99.90;;;;;;5025281;28;20235;-79
2022/06/03 05:35:09;;;;;;;58.70;55.55;;;20.90;99.90;;;;;;5025389;28;20203;-78
2022/06/03 05:37:41;;;;;;;36.35;34.35;;;21.40;99.90;;;;;;5023161;28;20194;-79
2022/06/03 05:40:41;;;;;;;29.00;27.38;;;21.70;99.90;;;;;;5023303;28;20179;-78
2022/06/03 05:43:07;;;;;;;18.90;17.80;;;22.20;99.90;;;;;;5023563;28;20222;-79
2022/06/03 05:45:42;;;;;;;13.90;13.23;;;22.20;99.90;;;;;;5025530;28;20195;-81
2022/06/03 05:48:23;;;;;;;7.82;7.32;;;22.50;99.90;;;;;;5025253;28;20184;-80
2022/06/03 05:50:58;;;;;;;10.23;9.63;;;22.70;99.90;;;;;;5024664;28;20366;-80
2022/06/03 05:53:46;;;;;;;8.25;7.75;;;22.70;99.90;;;;;;5027999;28;20183;-80
2022/06/03 05:56:56;;;;;;;13.02;12.15;;;22.80;99.90;;;;;;5022332;28;20252;-78
2022/06/03 05:59:46;;;;;;;17.35;16.15;;;22.80;99.90;;;;;;5018521;28;20186;-79
2022/06/03 06:02:15;;;;;;;17.42;16.58;;;23.50;99.90;;;;;;5024002;28;20218;-81
2022/06/03 06:04:59;;;;;;;32.38;30.48;;;23.70;99.90;;;;;;5021495;28;20202;-78
2022/06/03 06:07:31;;;;;;;32.47;30.88;;;23.90;99.90;;;;;;5023647;28;20183;-79
2022/06/03 06:10:25;;;;;;;33.13;31.55;;;24.10;99.90;;;;;;5030156;28;20184;-79
2022/06/03 06:13:07;;;;;;;34.20;32.47;;;24.20;99.90;;;;;;5026761;28;20580;-81
2022/06/03 06:16:04;;;;;;;24.08;22.90;;;24.50;99.90;;;;;;5019916;28;20632;-81
2022/06/03 06:19:13;;;;;;;13.85;13.00;;;24.70;98.60;;;;;;5023620;28;20195;-80
2022/06/03 06:22:00;;;;;;;7.28;6.78;;;24.70;98.00;;;;;;4993321;28;20289;-79
2022/06/03 06:24:54;;;;;;;8.13;7.63;;;24.90;97.40;;;;;;5019620;28;20203;-80
2022/06/03 06:27:31;;;;;;;8.95;6.53;;;25.50;96.60;;;;;;4977625;28;20192;-79
2022/06/03 06:30:34;;;;;;;7.43;7.03;;;25.90;94.70;;;;;;4997046;28;20223;-78
2022/06/03 06:33:37;;;;;;;8.88;8.32;;;26.10;94.50;;;;;;4997670;28;20231;-80
2022/06/03 06:36:38;;;;;;;6.38;6.00;;;26.20;94.30;;;;;;4947518;28;20606;-79
2022/06/03 06:39:22;;;;;;;6.85;6.35;;;26.10;92.60;;;;;;4996238;28;20215;-79
2022/06/03 06:42:08;;;;;;;7.95;7.28;;;26.20;91.90;;;;;;5012379;28;20211;-80
2022/06/03 06:44:43;;;;;;;7.63;6.47;;;26.30;91.70;;;;;;5013075;28;20183;-80
2022/06/03 06:47:22;;;;;;;8.13;7.43;;;26.40;92.00;;;;;;5014043;28;20179;-80
2022/06/03 06:50:13;;;;;;;6.43;5.38;;;26.50;92.00;;;;;;5015039;28;20179;-78
2022/06/03 06:52:39;;;;;;;5.97;5.47;;;26.60;91.00;;;;;;5015218;28;20188;-79
2022/06/03 06:55:30;;;;;;;6.22;5.75;;;26.60;90.40;;;;;;5013974;28;20171;-79
2022/06/03 06:58:03;;;;;;;6.35;5.95;;;26.90;90.30;;;;;;5015915;28;20179;-80
2022/06/03 07:00:39;;;;;;;5.65;5.32;;;26.80;90.20;;;;;;5015589;28;20184;-80
2022/06/03 07:03:40;;;;;;;6.88;6.45;;;26.60;90.20;;;;;;5017200;28;20190;-79
2022/06/03 07:06:27;;;;;;;7.57;5.97;;;26.00;91.00;;;;;;5018363;28;20624;-79
2022/06/03 07:09:11;;;;;;;7.82;7.32;;;25.90;92.00;;;;;;5014402;28;20184;-80
2022/06/03 07:11:59;;;;;;;8.18;7.65;;;26.20;91.20;;;;;;5017772;28;20200;-79
2022/06/03 07:14:30;;;;;;;6.88;6.47;;;26.50;90.30;;;;;;5021222;28;20266;-79
2022/06/03 07:20:48;;;;;;;6.97;6.55;;;26.40;90.60;;;;;;5017688;28;20195;-77
2022/06/03 07:23:33;;;;;;;8.55;6.32;;;26.40;91.00;;;;;;5019552;28;20191;-77
2022/06/03 07:26:17;;;;;;;6.80;6.10;;;26.30;91.20;;;;;;5023611;28;20215;-79
2022/06/03 07:28:52;;;;;;;6.82;6.53;;;26.40;91.20;;;;;;5020157;28;20575;-78
2022/06/03 07:31:47;;;;;;;7.95;7.55;;;26.00;91.80;;;;;;5020364;28;20203;-80
2022/06/03 07:34:15;;;;;;;6.65;6.25;;;26.20;91.80;;;;;;4993686;28;20188;-80
2022/06/03 07:37:00;;;;;;;7.32;6.65;;;26.40;91.40;;;;;;5029334;28;20186;-77
2022/06/03 07:39:35;;;;;;;6.50;5.88;;;26.40;91.30;;;;;;5022861;28;20184;-79
2022/06/03 07:42:18;;;;;;;6.93;6.28;;;26.40;91.60;;;;;;5015928;28;20215;-76
2022/06/03 07:45:08;;;;;;;7.00;6.65;;;26.60;91.70;;;;;;5014998;28;20214;-77
2022/06/03 07:47:34;;;;;;;7.20;6.50;;;26.60;91.40;;;;;;5015853;28;20241;-75
2022/06/03 07:50:05;;;;;;;6.22;5.70;;;26.40;91.60;;;;;;5014747;28;20532;-77
2022/06/03 07:52:43;;;;;;;8.73;8.07;;;26.70;92.40;;;;;;5018143;28;20234;-78
2022/06/03 07:55:16;;;;;;;7.75;7.28;;;27.60;91.30;;;;;;5020756;28;20180;-77
2022/06/03 07:57:57;;;;;;;7.05;6.75;;;27.90;89.40;;;;;;5021871;28;20214;-78
2022/06/03 08:00:24;;;;;;;7.45;7.05;;;27.80;89.10;;;;;;5016816;28;20191;-77
2022/06/03 08:03:15;;;;;;;7.60;7.03;;;27.70;90.10;;;;;;5024856;28;20179;-77
2022/06/03 08:05:44;;;;;;;5.00;4.47;;;28.20;90.20;;;;;;5026331;28;20191;-77
2022/06/03 08:11:00;;;;;;;6.93;6.43;;;29.60;87.80;;;;;;5023231;28;20238;-77
2022/06/03 08:13:52;;;;;;;5.35;5.05;;;29.70;81.70;;;;;;5017891;28;20202;-79
2022/06/03 08:16:44;;;;;;;6.22;5.93;;;29.70;86.20;;;;;;5020170;28;20319;-78
2022/06/03 08:19:18;;;;;;;5.53;5.13;;;30.00;80.70;;;;;;5016496;28;20199;-79
2022/06/03 08:21:52;;;;;;;4.90;4.68;;;29.40;81.60;;;;;;5018357;28;20269;-79
2022/06/03 08:24:24;;;;;;;5.85;5.40;;;29.30;82.80;;;;;;5020419;28;20215;-78
2022/06/03 08:26:57;;;;;;;5.43;5.03;;;29.40;81.50;;;;;;5019190;28;20184;-78
2022/06/03 08:29:40;;;;;;;6.63;5.28;;;29.80;82.50;;;;;;5020818;28;20180;-78
2022/06/03 08:32:11;;;;;;;6.22;5.72;;;30.10;79.70;;;;;;5001373;28;20269;-79
2022/06/03 08:34:45;;;;;;;5.90;5.60;;;30.00;79.10;;;;;;5004689;28;20188;-79
2022/06/03 08:37:39;;;;;;;8.02;7.53;;;29.80;79.30;;;;;;5006326;28;20205;-77
2022/06/03 08:40:34;;;;;;;6.35;5.85;;;29.80;80.70;;;;;;5006110;28;20266;-78
2022/06/03 08:43:19;;;;;;;5.93;5.63;;;29.80;78.10;;;;;;5006749;28;20203;-78
2022/06/03 08:45:49;;;;;;;5.28;4.85;;;29.20;81.00;;;;;;5004373;28;20183;-78
2022/06/03 08:48:19;;;;;;;4.95;4.55;;;29.30;80.60;;;;;;5001968;28;20192;-78
2022/06/03 08:50:48;;;;;;;4.93;4.63;;;29.60;76.70;;;;;;4997709;28;20212;-77
2022/06/03 08:53:18;;;;;;;4.45;4.13;;;29.60;76.40;;;;;;4999224;28;20279;-79
2022/06/03 08:55:51;;;;;;;5.65;5.15;;;29.90;75.50;;;;;;5002792;28;20188;-79
2022/06/03 08:58:56;;;;;;;4.50;4.20;;;30.00;75.60;;;;;;5012906;28;20187;-79
2022/06/03 09:01:43;;;;;;;4.63;4.32;;;30.00;75.00;;;;;;5018970;28;20219;-79
2022/06/03 09:04:19;;;;;;;4.78;4.53;;;30.10;76.10;;;;;;5021093;28;20195;-80
2022/06/03 09:07:04;;;;;;;5.40;5.00;;;30.60;74.20;;;;;;5018762;28;20180;-77
2022/06/03 09:09:42;;;;;;;5.93;5.43;;;31.00;75.70;;;;;;5024560;28;20188;-79
2022/06/03 09:12:23;;;;;;;5.00;4.30;;;31.40;73.50;;;;;;5021465;28;20207;-80
2022/06/03 09:14:52;;;;;;;5.20;5.00;;;32.00;72.50;;;;;;5041851;23;20271;-78
2022/06/03 09:17:43;;;;;;;4.57;4.28;;;32.00;69.10;;;;;;5015777;28;20184;-76
2022/06/03 09:20:17;;;;;;;5.47;5.07;;;31.50;72.10;;;;;;5015906;28;20192;-78
2022/06/03 09:22:45;;;;;;;5.80;5.40;;;30.30;72.60;;;;;;5015538;28;20708;-77
2022/06/03 09:25:14;;;;;;;4.78;4.57;;;30.10;74.70;;;;;;5020906;28;20218;-76
2022/06/03 09:27:42;;;;;;;6.05;5.65;;;30.00;73.50;;;;;;5034016;28;20195;-78
2022/06/03 09:30:10;;;;;;;5.43;5.03;;;29.50;74.90;;;;;;5035757;28;20201;-77
2022/06/03 09:32:47;;;;;;;5.10;4.90;;;29.70;75.90;;;;;;5034594;28;20237;-76
2022/06/03 09:35:19;;;;;;;4.63;4.43;;;30.20;74.90;;;;;;5034501;28;20688;-76
2022/06/03 09:37:50;;;;;;;5.15;4.93;;;31.00;72.30;;;;;;5031702;28;20187;-75
2022/06/03 09:40:21;;;;;;;5.45;5.13;;;31.30;72.60;;;;;;5031630;28;20191;-76
2022/06/03 09:42:54;;;;;;;5.07;4.82;;;31.80;71.70;;;;;;5016359;28;20191;-76
2022/06/03 09:45:23;;;;;;;5.75;5.25;;;32.00;69.70;;;;;;5025832;28;20201;-75
2022/06/03 09:47:50;;;;;;;6.63;6.13;;;31.90;69.70;;;;;;5020213;28;20199;-76
2022/06/03 09:50:19;;;;;;;9.02;8.60;;;31.70;69.50;;;;;;5012807;28;20261;-76
2022/06/03 09:52:48;;;;;;;9.23;8.77;;;31.70;68.90;;;;;;5012347;28;20191;-76
2022/06/03 09:55:39;;;;;;;9.55;8.90;;;31.60;68.00;;;;;;5021022;28;20568;-76
2022/06/03 09:58:08;;;;;;;13.38;12.68;;;31.50;67.00;;;;;;5030984;28;20183;-76
2022/06/03 10:00:47;;;;;;;10.45;9.90;;;31.70;66.90;;;;;;5032469;28;20186;-77
2022/06/03 10:03:14;;;;;;;30.63;29.20;;;31.80;67.60;;;;;;5032487;28;20197;-76
2022/06/03 10:05:42;;;;;;;36.22;34.47;;;32.40;64.00;;;;;;5031707;28;20203;-76
2022/06/03 10:08:11;;;;;;;42.45;40.25;;;32.70;65.50;;;;;;5030156;28;20183;-76
2022/06/03 10:13:22;;;;;;;33.85;31.90;;;32.70;64.30;;;;;;5012331;28;20183;-75
2022/06/03 10:15:55;;;;;;;40.58;38.40;;;32.70;62.70;;;;;;5010939;28;20223;-76
2022/06/03 10:18:28;;;;;;;25.45;24.25;;;32.20;63.60;;;;;;5010876;28;20180;-76
2022/06/03 10:21:04;;;;;;;29.38;27.67;;;32.20;65.00;;;;;;5010562;28;20492;-75
2022/06/03 10:23:36;;;;;;;34.22;32.42;;;32.70;63.80;;;;;;5027383;28;20193;-76
2022/06/03 10:26:04;;;;;;;49.17;46.47;;;33.40;61.10;;;;;;5030714;28;20210;-75
2022/06/03 10:28:39;;;;;;;31.92;30.23;;;34.00;60.80;;;;;;5031683;28;20187;-75
2022/06/03 10:31:11;;;;;;;54.92;52.30;;;34.80;59.40;;;;;;5031965;28;20217;-76
2022/06/03 10:33:37;;;;;;;47.47;45.08;;;34.70;58.90;;;;;;5031662;28;20217;-74
2022/06/03 10:36:04;;;;;;;92.18;87.70;;;35.10;57.40;;;;;;5023987;28;20219;-76
2022/06/03 10:38:33;;;;;;;109.47;104.40;;;34.90;57.20;;;;;;5011200;28;20532;-76
2022/06/03 10:41:05;;;;;;;73.18;69.43;;;34.70;57.20;;;;;;5011319;28;20430;-76
2022/06/03 10:43:33;;;;;;;70.10;66.63;;;34.20;57.90;;;;;;5011967;28;20734;-76
2022/06/03 10:46:19;;;;;;;90.65;86.35;;;34.60;57.40;;;;;;5011645;28;20699;-75
2022/06/03 10:48:46;;;;;;;123.53;117.63;;;35.10;57.60;;;;;;5010784;28;20191;-73
2022/06/03 11:01:06;;;;;;;130.05;123.85;;;36.00;54.80;;;;;;5028358;28;20207;-76
2022/06/03 11:02:38;;;;;;;97.90;92.88;;;36.30;52.00;;;;;;5011245;28;20175;-75
2022/06/03 11:05:31;;;;;;;81.18;77.25;;;35.90;52.70;;;;;;5011961;28;20290;-76
2022/06/03 11:08:07;;;;;;;103.57;98.63;;;35.90;52.70;;;;;;5011235;28;20640;-76
2022/06/03 11:10:40;;;;;;;109.57;104.07;;;35.90;53.10;;;;;;5009923;28;20179;-75
2022/06/03 11:13:08;;;;;;;80.40;76.63;;;36.00;52.70;;;;;;5011163;28;20180;-74
2022/06/03 11:15:45;;;;;;;57.75;55.00;;;36.20;50.70;;;;;;5009492;28;20264;-75
2022/06/03 11:18:33;;;;;;;64.95;61.88;;;36.00;50.40;;;;;;5013316;28;20191;-75
2022/06/03 11:21:15;;;;;;;71.68;68.22;;;35.60;49.70;;;;;;5009856;28;20192;-74
2022/06/03 11:23:41;;;;;;;144.38;137.55;;;34.40;51.50;;;;;;5024128;28;20235;-73
2022/06/03 11:26:07;;;;;;;170.90;162.70;;;34.10;52.90;;;;;;5016774;28;20247;-74
2022/06/03 11:28:51;;;;;;;203.23;193.32;;;33.80;53.30;;;;;;5010624;28;20179;-74
2022/06/03 11:31:27;;;;;;;170.43;162.25;;;33.60;53.00;;;;;;5018744;28;20260;-75
2022/06/03 11:34:14;;;;;;;165.82;158.05;;;33.80;52.60;;;;;;5029580;28;20190;-76
2022/06/03 11:36:56;;;;;;;150.75;143.65;;;33.40;53.40;;;;;;5030313;28;20695;-74
2022/06/03 11:39:33;;;;;;;97.80;92.97;;;32.90;54.70;;;;;;5023536;28;20207;-74
2022/06/03 11:42:08;;;;;;;96.35;91.85;;;32.50;55.70;;;;;;5005640;28;20199;-74
2022/06/03 11:44:47;;;;;;;81.82;77.75;;;32.50;56.10;;;;;;5014618;28;20627;-74
2022/06/03 11:47:19;;;;;;;75.93;72.22;;;32.70;57.10;;;;;;5030163;28;20639;-75
2022/06/03 11:49:45;;;;;;;102.82;97.93;;;32.70;56.90;;;;;;5029456;28;20187;-74
2022/06/03 11:52:12;;;;;;;91.70;87.03;;;32.70;55.30;;;;;;5030257;28;20207;-74
2022/06/03 11:54:39;;;;;;;114.15;108.75;;;32.40;56.80;;;;;;5030152;28;20709;-74
2022/06/03 11:57:07;;;;;;;81.13;77.20;;;31.70;56.30;;;;;;5029481;28;20190;-75
2022/06/03 11:59:44;;;;;;;56.97;54.05;;;31.60;58.10;;;;;;5014962;28;20345;-74
2022/06/03 12:02:18;;;;;;;36.63;34.72;;;31.40;59.30;;;;;;5008409;28;20186;-74
2022/06/03 12:05:09;;;;;;;39.72;37.53;;;30.90;59.70;;;;;;5008972;28;20770;-75
2022/06/03 12:08:00;;;;;;;19.15;18.15;;;30.60;62.10;;;;;;5011082;28;20184;-74
2022/06/03 12:10:41;;;;;;;13.15;12.52;;;30.30;68.60;;;;;;5014100;28;20681;-74
2022/06/03 12:13:30;;;;;;;11.85;10.90;;;29.90;71.40;;;;;;5015631;28;20210;-75
2022/06/03 12:15:57;;;;;;;24.55;22.70;;;29.60;73.50;;;;;;5013031;28;20215;-75
2022/06/03 12:18:32;;;;;;;20.23;18.65;;;29.70;74.10;;;;;;5016604;28;20234;-77
2022/06/03 12:21:07;;;;;;;21.55;20.15;;;29.80;73.40;;;;;;5017258;28;20194;-77
2022/06/03 12:23:36;;;;;;;16.45;15.20;;;29.90;73.70;;;;;;5015877;28;20199;-77
2022/06/03 12:26:11;;;;;;;14.02;13.23;;;29.80;74.90;;;;;;5005477;28;20197;-77
2022/06/03 12:28:37;;;;;;;12.05;11.25;;;29.70;74.00;;;;;;4992917;28;20184;-76
2022/06/03 12:31:19;;;;;;;11.00;10.27;;;29.60;74.90;;;;;;4993332;28;20298;-75
2022/06/03 12:33:48;;;;;;;11.23;10.55;;;29.70;77.30;;;;;;4993999;28;20176;-77
2022/06/03 12:36:46;;;;;;;16.50;15.30;;;29.90;76.10;;;;;;4995133;28;20653;-78
2022/06/03 12:39:23;;;;;;;16.55;15.65;;;30.30;75.00;;;;;;5001971;28;20239;-77
2022/06/03 12:41:49;;;;;;;13.95;13.15;;;30.30;74.70;;;;;;5013494;28;20188;-79
2022/06/03 12:44:39;;;;;;;11.45;10.77;;;30.40;74.00;;;;;;5016162;28;20199;-77
2022/06/03 12:47:26;;;;;;;11.35;10.75;;;30.50;73.10;;;;;;5015578;28;20190;-78
2022/06/03 12:49:57;;;;;;;13.93;12.95;;;30.20;75.10;;;;;;5019041;28;20188;-77
2022/06/03 12:52:26;;;;;;;16.85;15.75;;;29.80;76.80;;;;;;5017227;28;20212;-77
2022/06/03 12:55:00;;;;;;;10.45;9.57;;;29.40;78.10;;;;;;5016896;28;20700;-77
2022/06/03 12:57:43;;;;;;;11.20;10.18;;;29.00;77.80;;;;;;5019133;28;20222;-78
2022/06/03 13:00:09;;;;;;;6.13;5.75;;;28.70;80.30;;;;;;5019714;28;20191;-78
2022/06/03 13:02:46;;;;;;;7.13;6.80;;;28.50;81.90;;;;;;5036227;28;20256;-78
2022/06/03 13:05:36;;;;;;;7.72;7.13;;;28.20;82.80;;;;;;5019763;28;20729;-78
2022/06/03 13:08:09;;;;;;;7.10;6.60;;;28.00;83.70;;;;;;5018695;28;20183;-78
2022/06/03 13:10:57;;;;;;;11.90;10.57;;;27.80;85.00;;;;;;5011898;28;20192;-78
2022/06/03 13:13:55;;;;;;;16.70;15.57;;;27.70;86.90;;;;;;5014826;28;20187;-78
2022/06/03 13:16:31;;;;;;;18.80;17.35;;;27.70;87.50;;;;;;5017807;28;20603;-77
2022/06/03 13:19:12;;;;;;;19.38;18.10;;;27.60;87.40;;;;;;5032889;28;20673;-78
2022/06/03 13:22:02;;;;;;;182.32;173.07;;;27.50;87.20;;;;;;5022340;28;20180;-78
2022/06/03 13:24:30;;;;;;;267.60;254.15;;;27.50;91.00;;;;;;5004499;28;20195;-78
2022/06/03 13:27:29;;;;;;;250.02;237.57;;;27.40;92.60;;;;;;5013484;28;20212;-79
2022/06/03 13:29:56;;;;;;;289.00;274.10;;;27.60;91.10;;;;;;5002406;28;20220;-79
2022/06/03 13:32:40;;;;;;;349.55;331.30;;;28.00;91.50;;;;;;5015003;28;20226;-78
2022/06/03 13:35:27;;;;;;;327.27;310.85;;;28.30;94.40;;;;;;5017201;28;20195;-78
2022/06/03 13:38:11;;;;;;;405.58;384.27;;;28.40;94.80;;;;;;5012520;28;20580;-78
2022/06/03 13:40:38;;;;;;;422.83;400.17;;;28.40;93.90;;;;;;5013739;28;20625;-77
2022/06/03 13:43:20;;;;;;;418.40;396.35;;;28.40;94.60;;;;;;5013058;28;20191;-78
2022/06/03 13:46:02;;;;;;;419.20;396.90;;;28.20;94.50;;;;;;5015455;28;20253;-78
2022/06/03 13:48:51;;;;;;;454.45;429.73;;;28.00;95.60;;;;;;5020296;28;20187;-78
2022/06/03 13:51:58;;;;;;;409.95;388.08;;;27.70;97.20;;;;;;5041355;28;20724;-77
2022/06/03 13:54:37;;;;;;;360.98;342.27;;;27.40;98.50;;;;;;5037824;28;20198;-77
2022/06/03 13:57:16;;;;;;;205.57;195.38;;;27.10;99.40;;;;;;5035653;28;20210;-77
2022/06/03 13:59:43;;;;;;;141.52;134.35;;;26.70;99.90;;;;;;5034312;28;20190;-77
2022/06/03 14:02:14;;;;;;;38.25;35.80;;;26.50;99.90;;;;;;5035132;28;20184;-77
2022/06/03 14:05:01;;;;;;;32.17;30.35;;;26.40;99.90;;;;;;5016989;28;20183;-78
2022/06/03 14:07:40;;;;;;;21.00;19.67;;;26.40;99.90;;;;;;5013056;28;20183;-78
2022/06/03 14:10:18;;;;;;;15.23;14.20;;;26.40;99.90;;;;;;5015370;28;20179;-78
2022/06/03 14:13:12;;;;;;;10.95;10.05;;;26.40;99.90;;;;;;5014329;28;20210;-78
2022/06/03 14:16:27;;;;;;;13.27;12.57;;;26.40;99.90;;;;;;5017729;28;20210;-79
2022/06/03 14:19:21;;;;;;;23.75;22.20;;;26.40;99.90;;;;;;5015733;28;20194;-78
2022/06/03 14:21:51;;;;;;;29.50;27.73;;;26.50;99.90;;;;;;5032503;28;20579;-78
2022/06/03 14:24:38;;;;;;;28.98;27.15;;;26.70;99.90;;;;;;5033907;28;20187;-78
2022/06/03 14:27:10;;;;;;;19.05;17.98;;;26.70;99.90;;;;;;5036956;28;20187;-79
2022/06/03 14:30:03;;;;;;;22.67;21.10;;;26.70;99.90;;;;;;5029932;28;20382;-78
2022/06/03 14:32:34;;;;;;;13.43;12.52;;;26.70;99.90;;;;;;5008561;28;20299;-77
2022/06/03 14:35:05;;;;;;;20.73;19.58;;;26.50;99.90;;;;;;5018668;28;20204;-77
2022/06/03 14:37:51;;;;;;;9.43;8.73;;;26.70;99.90;;;;;;5017293;28;20605;-78
2022/06/03 14:40:26;;;;;;;17.33;16.33;;;26.80;99.90;;;;;;5037354;28;20171;-77
2022/06/03 14:42:55;;;;;;;77.53;73.47;;;26.90;99.90;;;;;;5013001;28;20186;-77
2022/06/03 14:45:24;;;;;;;178.52;169.73;;;27.10;99.90;;;;;;5032369;28;20195;-78
2022/06/03 14:47:57;;;;;;;451.70;427.15;;;27.20;99.90;;;;;;5032954;28;20182;-78
2022/06/03 14:50:30;;;;;;;470.63;444.98;;;27.20;99.90;;;;;;5033976;28;20208;-78
2022/06/03 14:53:19;;;;;;;403.55;382.33;;;27.10;99.90;;;;;;5031985;28;20207;-78
2022/06/03 14:55:52;;;;;;;229.60;218.00;;;26.80;99.90;;;;;;5034079;28;20199;-77
2022/06/03 14:58:24;;;;;;;152.68;145.18;;;26.70;99.90;;;;;;5017049;28;20266;-79
2022/06/03 15:01:28;;;;;;;294.27;279.60;;;27.00;99.90;;;;;;5025686;28;20198;-76
2022/06/03 15:04:01;;;;;;;417.10;394.83;;;27.40;99.90;;;;;;5036445;28;20187;-77
2022/06/03 15:06:38;;;;;;;494.88;467.60;;;27.70;99.90;;;;;;5022325;28;20362;-80
2022/06/03 15:09:19;;;;;;;375.70;355.58;;;27.90;99.90;;;;;;5009390;28;20210;-78
2022/06/03 15:11:51;;;;;;;186.30;176.68;;;28.20;99.90;;;;;;4999400;28;20687;-78
2022/06/03 15:14:25;;;;;;;131.65;125.07;;;28.40;99.90;;;;;;5020772;28;20586;-78
2022/06/03 15:16:58;;;;;;;124.43;118.32;;;28.70;99.90;;;;;;5039946;23;20235;-78
2022/06/03 15:19:52;;;;;;;135.63;128.95;;;29.00;99.90;;;;;;4997601;28;20688;-78
2022/06/03 15:22:24;;;;;;;157.45;149.43;;;29.10;99.90;;;;;;5007436;28;20231;-79
2022/06/03 15:25:23;;;;;;;132.60;125.85;;;29.10;99.90;;;;;;5016435;28;20275;-79
2022/06/03 15:27:57;;;;;;;80.57;76.57;;;29.20;99.90;;;;;;4978447;28;20213;-78
2022/06/03 15:30:32;;;;;;;15.35;14.35;;;29.50;99.90;;;;;;4985860;28;20308;-79
2022/06/03 15:32:58;;;;;;;12.45;11.65;;;29.70;97.90;;;;;;4979300;28;20212;-78
2022/06/03 15:35:30;;;;;;;13.15;12.25;;;29.70;97.50;;;;;;4978103;28;20192;-78
2022/06/03 15:37:59;;;;;;;11.00;10.27;;;29.50;96.90;;;;;;4992115;28;20180;-78
2022/06/03 15:40:36;;;;;;;7.20;6.55;;;29.90;96.10;;;;;;5015100;28;20179;-78
2022/06/03 15:43:07;;;;;;;9.65;9.15;;;30.10;95.80;;;;;;5015253;28;20179;-78
2022/06/03 15:45:36;;;;;;;6.13;5.78;;;30.00;95.90;;;;;;5010189;28;20189;-77
2022/06/03 15:48:08;;;;;;;8.88;8.18;;;29.90;95.10;;;;;;4993515;28;20184;-78
2022/06/03 15:50:35;;;;;;;7.93;7.20;;;29.20;95.80;;;;;;4999432;28;20271;-78
2022/06/03 15:53:04;;;;;;;10.57;9.88;;;28.60;96.20;;;;;;4993383;28;20204;-77
2022/06/03 15:55:30;;;;;;;12.55;11.55;;;28.20;96.30;;;;;;4994235;28;20180;-77
2022/06/03 15:58:20;;;;;;;14.40;13.38;;;28.00;96.10;;;;;;4998719;28;20176;-78
2022/06/03 16:00:56;;;;;;;19.75;18.52;;;28.20;96.40;;;;;;5013826;28;20543;-79
2022/06/03 16:03:37;;;;;;;30.23;28.42;;;28.30;96.60;;;;;;4997954;28;20188;-77
2022/06/03 16:06:20;;;;;;;38.25;36.08;;;28.60;97.50;;;;;;5013396;28;20210;-78
2022/06/03 16:09:02;;;;;;;34.08;32.17;;;28.80;97.20;;;;;;4986021;28;20196;-78
2022/06/03 16:11:48;;;;;;;20.90;19.67;;;28.80;97.50;;;;;;5005009;28;20220;-76
2022/06/03 16:14:47;;;;;;;20.88;19.77;;;28.70;96.30;;;;;;5005520;28;20208;-80
2022/06/03 16:17:28;;;;;;;9.25;8.68;;;28.90;96.00;;;;;;4986775;28;20228;-78
2022/06/03 16:20:13;;;;;;;8.23;7.68;;;29.20;94.80;;;;;;5021978;28;20183;-80
2022/06/03 16:22:46;;;;;;;6.68;6.20;;;29.40;93.70;;;;;;5016770;28;20257;-79
2022/06/03 16:25:26;;;;;;;5.93;5.63;;;29.50;92.50;;;;;;5017594;28;20188;-79
2022/06/03 16:28:08;;;;;;;6.38;6.00;;;29.50;93.10;;;;;;5002142;28;20195;-80
2022/06/03 16:30:36;;;;;;;7.85;7.35;;;29.10;93.10;;;;;;4995223;28;20196;-78
2022/06/03 16:33:18;;;;;;;9.07;8.25;;;28.80;92.60;;;;;;5008495;28;20339;-75
2022/06/03 16:35:55;;;;;;;9.10;8.50;;;28.60;92.50;;;;;;5015381;28;20209;-77
2022/06/03 16:39:03;;;;;;;8.38;6.97;;;28.60;93.00;;;;;;5017142;28;20690;-77
2022/06/03 16:42:07;;;;;;;6.97;6.47;;;28.50;93.10;;;;;;4988783;28;20198;-77
2022/06/03 16:44:41;;;;;;;6.57;6.00;;;28.20;93.90;;;;;;5017815;28;20199;-75
2022/06/03 16:47:31;;;;;;;9.68;9.13;;;28.10;94.30;;;;;;5000372;28;20626;-78
2022/06/03 16:50:27;;;;;;;18.98;17.88;;;27.90;94.60;;;;;;5003682;28;20195;-77
2022/06/03 16:52:55;;;;;;;30.65;29.10;;;27.70;95.10;;;;;;5000187;28;20270;-78
2022/06/03 16:55:29;;;;;;;53.65;50.88;;;27.60;95.90;;;;;;4992126;28;20659;-75